Time,TemperatureF,DewpointF,PressureIn,WindDirection,WindDirectionDegrees,WindSpeedMPH,WindSpeedGustMPH,Humidity,HourlyPrecipIn,Conditions,Clouds,dailyrainin,SolarRadiationWatts/m^2,SoftwareType,DateUTC
2017-10-17 00:00:00,50.0,26.6,30.03,NNW,345,1.0,1.0,40,0.00,,,0.00,0,Wunderground v.1.15,2017-10-17 06:00:00,
2017-10-17 00:05:00,50.2,26.2,30.03,NNW,345,0.0,1.0,39,0.00,,,0.00,0,Wunderground v.1.15,2017-10-17 06:05:00,
2017-10-17 00:15:00,49.8,25.8,30.03,NNW,342,0.0,0.0,39,0.00,,,0.00,0,Wunderground v.1.15,2017-10-17 06:15:00,
2017-10-17 00:25:00,49.5,25.5,30.03,NW,323,1.0,4.0,39,0.00,,,0.00,0,Wunderground v.1.15,2017-10-17 06:25:00,
2017-10-17 00:35:00,49.2,25.3,30.02,NW,311,3.0,3.0,39,0.00,,,0.00,0,Wunderground v.1.15,2017-10-17 06:35:00,
2017-10-17 00:45:00,49.5,25.5,30.02,WNW,300,2.0,3.0,39,0.00,,,0.00,0,Wunderground v.1.15,2017-10-17 06:45:00,
2017-10-17 00:55:00,49.7,25.7,30.03,NW,318,3.0,5.0,39,0.00,,,0.00,0,Wunderground v.1.15,2017-10-17 06:55:00,
2017-10-17 01:00:00,49.8,25.8,30.03,NW,318,3.0,3.0,39,0.00,,,0.00,0,Wunderground v.1.15,2017-10-17 07:00:00,
2017-10-17 01:10:00,50.3,25.6,30.02,NW,316,0.0,0.0,38,0.00,,,0.00,0,Wunderground v.1.15,2017-10-17 07:10:00,
2017-10-17 01:20:00,50.7,25.3,30.02,NW,315,0.0,0.0,37,0.00,,,0.00,0,Wunderground v.1.15,2017-10-17 07:20:00,
2017-10-17 01:30:00,50.2,25.5,30.02,NW,315,0.0,0.0,38,0.00,,,0.00,0,Wunderground v.1.15,2017-10-17 07:30:00,
2017-10-17 01:40:00,49.7,25.1,30.02,NW,315,0.0,0.0,38,0.00,,,0.00,0,Wunderground v.1.15,2017-10-17 07:40:00,
2017-10-17 01:50:00,48.9,25.6,30.02,NW,315,0.0,0.0,40,0.00,,,0.00,0,Wunderground v.1.15,2017-10-17 07:50:00,
2017-10-17 02:00:00,49.2,25.3,30.01,NW,315,0.0,0.0,39,0.00,,,0.00,0,Wunderground v.1.15,2017-10-17 08:00:00,
2017-10-17 02:05:00,49.5,25.5,30.01,NW,315,0.0,0.0,39,0.00,,,0.00,0,Wunderground v.1.15,2017-10-17 08:05:00,
2017-10-17 02:15:00,50.6,25.3,30.01,NW,315,0.0,0.0,37,0.00,,,0.00,0,Wunderground v.1.15,2017-10-17 08:15:00,
2017-10-17 02:25:00,51.0,25.0,30.01,NW,315,0.0,0.0,36,0.00,,,0.00,0,Wunderground v.1.15,2017-10-17 08:25:00,
2017-10-17 02:30:00,51.3,25.2,30.01,NW,315,0.0,0.0,36,0.00,,,0.00,0,Wunderground v.1.15,2017-10-17 08:30:00,
2017-10-17 02:40:00,51.5,25.4,30.01,West,261,0.0,0.0,36,0.00,,,0.00,0,Wunderground v.1.15,2017-10-17 08:40:00,
2017-10-17 02:50:00,51.3,25.2,30.00,West,262,0.0,0.0,36,0.00,,,0.00,0,Wunderground v.1.15,2017-10-17 08:50:00,
2017-10-17 02:55:00,50.8,25.4,30.00,West,262,0.0,0.0,37,0.00,,,0.00,0,Wunderground v.1.15,2017-10-17 08:55:00,
2017-10-17 03:00:00,50.2,25.5,30.00,West,262,0.0,0.0,38,0.00,,,0.00,0,Wunderground v.1.15,2017-10-17 09:00:00,
2017-10-17 03:10:00,50.6,25.3,30.00,West,262,0.0,0.0,37,0.00,,,0.00,0,Wunderground v.1.15,2017-10-17 09:10:00,
2017-10-17 03:20:00,50.5,25.2,30.00,West,262,0.0,0.0,37,0.00,,,0.00,0,Wunderground v.1.15,2017-10-17 09:20:00,
2017-10-17 03:30:00,50.4,25.1,30.00,West,262,0.0,0.0,37,0.00,,,0.00,0,Wunderground v.1.15,2017-10-17 09:30:00,
2017-10-17 03:40:00,49.9,25.3,29.99,West,262,0.0,0.0,38,0.00,,,0.00,0,Wunderground v.1.15,2017-10-17 09:40:00,
2017-10-17 03:45:00,49.8,25.2,29.99,West,262,0.0,4.0,38,0.00,,,0.00,0,Wunderground v.1.15,2017-10-17 09:45:00,
2017-10-17 04:00:00,49.9,25.3,29.99,West,262,0.0,0.0,38,0.00,,,0.00,0,Wunderground v.1.15,2017-10-17 10:00:00,
2017-10-17 04:05:00,49.0,25.1,29.99,West,262,0.0,0.0,39,0.00,,,0.00,0,Wunderground v.1.15,2017-10-17 10:05:00,
2017-10-17 04:25:00,48.4,25.2,29.97,SW,228,0.0,0.0,40,0.00,,,0.00,0,Wunderground v.1.15,2017-10-17 10:25:00,
2017-10-17 04:30:00,48.2,25.6,29.97,SW,229,0.0,0.0,41,0.00,,,0.00,0,Wunderground v.1.15,2017-10-17 10:30:00,
2017-10-17 04:40:00,48.4,25.8,29.97,SW,229,0.0,0.0,41,0.00,,,0.00,0,Wunderground v.1.15,2017-10-17 10:40:00,
2017-10-17 04:50:00,47.9,25.3,29.97,SW,229,0.0,0.0,41,0.00,,,0.00,0,Wunderground v.1.15,2017-10-17 10:50:00,
2017-10-17 05:00:00,48.1,25.5,29.97,SW,229,0.0,0.0,41,0.00,,,0.00,0,Wunderground v.1.15,2017-10-17 11:00:00,
2017-10-17 05:10:00,48.2,24.4,29.96,SW,229,0.0,0.0,39,0.00,,,0.00,0,Wunderground v.1.15,2017-10-17 11:10:00,
2017-10-17 05:20:00,49.0,24.5,29.97,SW,229,0.0,0.0,38,0.00,,,0.00,0,Wunderground v.1.15,2017-10-17 11:20:00,
2017-10-17 05:25:00,49.1,24.6,29.96,SW,229,0.0,0.0,38,0.00,,,0.00,0,Wunderground v.1.15,2017-10-17 11:25:00,
2017-10-17 05:35:00,48.9,25.0,29.97,SW,229,0.0,0.0,39,0.00,,,0.00,0,Wunderground v.1.15,2017-10-17 11:35:00,
2017-10-17 05:45:00,49.4,24.8,29.96,SW,229,1.0,3.0,38,0.00,,,0.00,0,Wunderground v.1.15,2017-10-17 11:45:00,
2017-10-17 05:55:00,49.6,24.4,29.96,SW,229,3.0,4.0,37,0.00,,,0.00,0,Wunderground v.1.15,2017-10-17 11:55:00,
2017-10-17 06:00:00,50.0,24.1,29.96,SW,229,1.0,3.0,36,0.00,,,0.00,0,Wunderground v.1.15,2017-10-17 12:00:00,
2017-10-17 06:10:00,50.7,24.0,29.95,SW,230,1.0,3.0,35,0.00,,,0.00,0,Wunderground v.1.15,2017-10-17 12:10:00,
2017-10-17 06:20:00,50.1,23.5,29.95,SW,230,0.0,0.0,35,0.00,,,0.00,0,Wunderground v.1.15,2017-10-17 12:20:00,
2017-10-17 06:30:00,49.5,23.6,29.95,SW,230,1.0,1.0,36,0.00,,,0.00,0,Wunderground v.1.15,2017-10-17 12:30:00,
2017-10-17 06:40:00,49.1,23.9,29.94,SW,231,1.0,1.0,37,0.00,,,0.00,0,Wunderground v.1.15,2017-10-17 12:40:00,
2017-10-17 06:50:00,50.1,23.5,29.95,SW,231,0.0,0.0,35,0.00,,,0.00,0,Wunderground v.1.15,2017-10-17 12:50:00,
2017-10-17 06:55:00,50.0,23.4,29.95,SW,231,0.0,0.0,35,0.00,,,0.00,0,Wunderground v.1.15,2017-10-17 12:55:00,
2017-10-17 07:00:00,49.8,23.9,29.95,SW,231,0.0,0.0,36,0.00,,,0.00,0,Wunderground v.1.15,2017-10-17 13:00:00,
2017-10-17 07:10:00,48.8,23.6,29.95,SW,232,0.0,0.0,37,0.00,,,0.00,0,Wunderground v.1.15,2017-10-17 13:10:00,
2017-10-17 07:20:00,49.1,23.3,29.94,SW,232,0.0,0.0,36,0.00,,,0.00,0,Wunderground v.1.15,2017-10-17 13:20:00,
2017-10-17 07:25:00,49.3,23.4,29.94,SW,232,0.0,0.0,36,0.00,,,0.00,0,Wunderground v.1.15,2017-10-17 13:25:00,
2017-10-17 07:35:00,48.7,23.6,29.94,SW,233,0.0,0.0,37,0.00,,,0.00,0,Wunderground v.1.15,2017-10-17 13:35:00,
2017-10-17 07:45:00,49.6,23.0,29.93,SW,233,0.0,0.0,35,0.00,,,0.00,0,Wunderground v.1.15,2017-10-17 13:45:00,
2017-10-17 07:50:00,49.9,22.6,29.93,SW,233,0.0,0.0,34,0.00,,,0.00,5,Wunderground v.1.15,2017-10-17 13:50:00,
2017-10-17 08:00:00,49.9,23.3,29.93,SW,233,0.0,0.0,35,0.00,,,0.00,9,Wunderground v.1.15,2017-10-17 14:00:00,
2017-10-17 08:10:00,48.1,23.0,29.93,ENE,76,0.0,0.0,37,0.00,,,0.00,12,Wunderground v.1.15,2017-10-17 14:10:00,
2017-10-17 08:15:00,48.0,23.6,29.93,ENE,76,0.0,0.0,38,0.00,,,0.00,12,Wunderground v.1.15,2017-10-17 14:15:00,
2017-10-17 08:25:00,45.9,25.7,29.93,East,80,0.0,0.0,45,0.00,,,0.00,21,Wunderground v.1.15,2017-10-17 14:25:00,
2017-10-17 08:35:00,44.8,24.7,29.93,East,80,0.0,0.0,45,0.00,,,0.00,44,Wunderground v.1.15,2017-10-17 14:35:00,
2017-10-17 08:45:00,46.7,24.2,29.92,East,82,0.0,0.0,41,0.00,,,0.00,69,Wunderground v.1.15,2017-10-17 14:45:00,
2017-10-17 08:55:00,49.8,24.5,29.92,East,82,0.0,0.0,37,0.00,,,0.00,98,Wunderground v.1.15,2017-10-17 14:55:00,
2017-10-17 09:00:00,50.9,24.2,29.92,East,82,0.0,0.0,35,0.00,,,0.00,113,Wunderground v.1.15,2017-10-17 15:00:00,
2017-10-17 09:10:00,52.4,23.4,29.92,East,82,0.0,0.0,32,0.00,,,0.00,146,Wunderground v.1.15,2017-10-17 15:10:00,
2017-10-17 09:20:00,51.1,25.0,29.91,East,82,1.0,1.0,36,0.00,,,0.00,183,Wunderground v.1.15,2017-10-17 15:20:00,
2017-10-17 09:25:00,51.2,28.3,29.91,WSW,258,1.0,1.0,41,0.00,,,0.00,204,Wunderground v.1.15,2017-10-17 15:25:00,
2017-10-17 09:35:00,50.3,24.3,29.91,WSW,258,1.0,6.0,36,0.00,,,0.00,239,Wunderground v.1.15,2017-10-17 15:35:00,
2017-10-17 09:45:00,51.4,25.3,29.91,WSW,244,4.0,4.0,36,0.00,,,0.00,267,Wunderground v.1.15,2017-10-17 15:45:00,
2017-10-17 09:50:00,51.2,24.5,29.91,WSW,244,4.0,4.0,35,0.00,,,0.00,278,Wunderground v.1.15,2017-10-17 15:50:00,
2017-10-17 10:00:00,51.2,25.1,29.90,WSW,244,1.0,3.0,36,0.00,,,0.00,260,Wunderground v.1.15,2017-10-17 16:00:00,
2017-10-17 10:10:00,52.4,24.8,29.90,West,261,3.0,4.0,34,0.00,,,0.00,308,Wunderground v.1.15,2017-10-17 16:10:00,
2017-10-17 10:15:00,53.0,24.6,29.89,WSW,254,3.0,4.0,33,0.00,,,0.00,376,Wunderground v.1.15,2017-10-17 16:15:00,
2017-10-17 10:25:00,53.1,25.4,29.89,WSW,252,2.0,3.0,34,0.00,,,0.00,257,Wunderground v.1.15,2017-10-17 16:25:00,
2017-10-17 10:35:00,53.5,25.1,29.89,West,266,4.0,4.0,33,0.00,,,0.00,374,Wunderground v.1.15,2017-10-17 16:35:00,
2017-10-17 10:40:00,53.5,25.1,29.89,West,277,5.0,9.0,33,0.00,,,0.00,408,Wunderground v.1.15,2017-10-17 16:40:00,
2017-10-17 10:50:00,53.8,24.6,29.88,WNW,289,7.0,7.0,32,0.00,,,0.00,431,Wunderground v.1.15,2017-10-17 16:50:00,
2017-10-17 11:00:00,54.8,24.7,29.88,West,272,3.0,3.0,31,0.00,,,0.00,443,Wunderground v.1.15,2017-10-17 17:00:00,
2017-10-17 11:05:00,55.1,25.0,29.87,West,272,4.0,4.0,31,0.00,,,0.00,462,Wunderground v.1.15,2017-10-17 17:05:00,
2017-10-17 11:15:00,55.6,25.4,29.87,NW,311,2.0,3.0,31,0.00,,,0.00,480,Wunderground v.1.15,2017-10-17 17:15:00,
2017-10-17 11:25:00,57.2,25.2,29.86,SSE,163,1.0,2.0,29,0.00,,,0.00,464,Wunderground v.1.15,2017-10-17 17:25:00,
2017-10-17 11:45:00,59.7,24.7,29.84,East,87,5.0,7.0,26,0.00,,,0.00,527,Wunderground v.1.15,2017-10-17 17:45:00,
2017-10-17 11:50:00,59.2,25.2,29.84,East,86,3.0,3.0,27,0.00,,,0.00,534,Wunderground v.1.15,2017-10-17 17:50:00,
2017-10-17 12:00:00,59.8,24.8,29.84,East,80,3.0,4.0,26,0.00,,,0.00,543,Wunderground v.1.15,2017-10-17 18:00:00,
2017-10-17 12:10:00,60.4,24.4,29.83,East,100,3.0,3.0,25,0.00,,,0.00,559,Wunderground v.1.15,2017-10-17 18:10:00,
2017-10-17 12:20:00,60.5,24.5,29.83,East,85,4.0,4.0,25,0.00,,,0.00,570,Wunderground v.1.15,2017-10-17 18:20:00,
2017-10-17 12:30:00,63.0,23.5,29.82,SW,215,7.0,7.0,22,0.00,,,0.00,555,Wunderground v.1.15,2017-10-17 18:30:00,
2017-10-17 12:40:00,63.2,22.6,29.81,SW,219,11.0,12.0,21,0.00,,,0.00,587,Wunderground v.1.15,2017-10-17 18:40:00,
2017-10-17 12:45:00,63.5,22.8,29.81,South,190,12.0,12.0,21,0.00,,,0.00,591,Wunderground v.1.15,2017-10-17 18:45:00,
2017-10-17 12:55:00,63.9,24.3,29.79,SSW,212,12.0,12.0,22,0.00,,,0.00,559,Wunderground v.1.15,2017-10-17 18:55:00,
2017-10-17 13:00:00,64.5,22.5,29.79,SSW,197,12.0,16.0,20,0.00,,,0.00,448,Wunderground v.1.15,2017-10-17 19:00:00,
2017-10-17 13:10:00,65.1,23.0,29.78,SW,228,13.0,14.0,20,0.00,,,0.00,610,Wunderground v.1.15,2017-10-17 19:10:00,
2017-10-17 13:20:00,65.1,23.0,29.78,WSW,249,14.0,19.0,20,0.00,,,0.00,612,Wunderground v.1.15,2017-10-17 19:20:00,
2017-10-17 13:30:00,65.4,23.2,29.78,WSW,246,15.0,17.0,20,0.00,,,0.00,626,Wunderground v.1.15,2017-10-17 19:30:00,
2017-10-17 13:40:00,65.9,23.7,29.77,WSW,241,15.0,15.0,20,0.00,,,0.00,650,Wunderground v.1.15,2017-10-17 19:40:00,
2017-10-17 13:50:00,66.4,21.6,29.76,WSW,243,18.0,18.0,18,0.00,,,0.00,564,Wunderground v.1.15,2017-10-17 19:50:00,
2017-10-17 13:55:00,66.6,21.7,29.76,WSW,255,21.0,26.0,18,0.00,,,0.00,633,Wunderground v.1.15,2017-10-17 19:55:00,
2017-10-17 14:00:00,66.3,22.8,29.76,West,259,20.0,21.0,19,0.00,,,0.00,608,Wunderground v.1.15,2017-10-17 20:00:00,
2017-10-17 14:10:00,66.6,23.0,29.75,WSW,247,18.0,20.0,19,0.00,,,0.00,635,Wunderground v.1.15,2017-10-17 20:10:00,
2017-10-17 14:20:00,66.6,23.0,29.75,WSW,249,18.0,18.0,19,0.00,,,0.00,429,Wunderground v.1.15,2017-10-17 20:20:00,
2017-10-17 14:30:00,65.9,22.4,29.74,WSW,250,18.0,18.0,19,0.00,,,0.00,311,Wunderground v.1.15,2017-10-17 20:30:00,
2017-10-17 14:40:00,66.4,22.8,29.74,WSW,257,19.0,25.0,19,0.00,,,0.00,513,Wunderground v.1.15,2017-10-17 20:40:00,
2017-10-17 14:50:00,67.0,23.3,29.74,SW,221,18.0,18.0,19,0.00,,,0.00,668,Wunderground v.1.15,2017-10-17 20:50:00,
2017-10-17 15:00:00,67.3,22.3,29.73,WSW,248,15.0,15.0,18,0.00,,,0.00,524,Wunderground v.1.15,2017-10-17 21:00:00,
2017-10-17 15:10:00,67.3,22.3,29.72,SW,236,18.0,19.0,18,0.00,,,0.00,538,Wunderground v.1.15,2017-10-17 21:10:00,
2017-10-17 15:20:00,67.2,22.2,29.72,West,277,21.0,21.0,18,0.00,,,0.00,517,Wunderground v.1.15,2017-10-17 21:20:00,
2017-10-17 15:30:00,67.1,22.1,29.71,WSW,254,21.0,21.0,18,0.00,,,0.00,499,Wunderground v.1.15,2017-10-17 21:30:00,
2017-10-17 15:35:00,67.4,22.4,29.71,WSW,250,21.0,21.0,18,0.00,,,0.00,497,Wunderground v.1.15,2017-10-17 21:35:00,
2017-10-17 15:45:00,67.5,22.5,29.70,WSW,256,20.0,21.0,18,0.00,,,0.00,506,Wunderground v.1.15,2017-10-17 21:45:00,
2017-10-17 15:55:00,67.1,22.1,29.70,SW,236,20.0,22.0,18,0.00,,,0.00,480,Wunderground v.1.15,2017-10-17 21:55:00,
2017-10-17 16:00:00,67.2,22.2,29.70,SW,232,20.0,20.0,18,0.00,,,0.00,439,Wunderground v.1.15,2017-10-17 22:00:00,
2017-10-17 16:10:00,66.8,21.9,29.70,SW,221,19.0,19.0,18,0.00,,,0.00,410,Wunderground v.1.15,2017-10-17 22:10:00,
2017-10-17 16:20:00,66.4,22.8,29.70,WSW,256,21.0,30.0,19,0.00,,,0.00,385,Wunderground v.1.15,2017-10-17 22:20:00,
2017-10-17 16:25:00,66.5,21.6,29.70,WSW,244,21.0,30.0,18,0.00,,,0.00,392,Wunderground v.1.15,2017-10-17 22:25:00,
2017-10-17 16:35:00,66.2,22.7,29.69,WSW,246,19.0,22.0,19,0.00,,,0.00,387,Wunderground v.1.15,2017-10-17 22:35:00,
2017-10-17 16:45:00,65.8,22.3,29.68,SSW,209,20.0,27.0,19,0.00,,,0.00,367,Wunderground v.1.15,2017-10-17 22:45:00,
2017-10-17 16:55:00,66.4,22.8,29.69,WSW,256,17.0,20.0,19,0.00,,,0.00,352,Wunderground v.1.15,2017-10-17 22:55:00,
2017-10-17 17:05:00,65.9,22.4,29.69,SW,230,19.0,25.0,19,0.00,,,0.00,327,Wunderground v.1.15,2017-10-17 23:05:00,
2017-10-17 17:15:00,65.2,23.1,29.69,SW,235,18.0,18.0,20,0.00,,,0.00,227,Wunderground v.1.15,2017-10-17 23:15:00,
2017-10-17 17:25:00,65.0,21.7,29.69,WSW,239,16.0,18.0,19,0.00,,,0.00,207,Wunderground v.1.15,2017-10-17 23:25:00,
2017-10-17 17:35:00,64.4,22.4,29.68,WSW,237,16.0,16.0,20,0.00,,,0.00,109,Wunderground v.1.15,2017-10-17 23:35:00,
2017-10-17 17:40:00,64.1,22.2,29.68,SW,233,15.0,15.0,20,0.00,,,0.00,79,Wunderground v.1.15,2017-10-17 23:40:00,
2017-10-17 17:50:00,63.4,22.7,29.68,WSW,257,12.0,12.0,21,0.00,,,0.00,40,Wunderground v.1.15,2017-10-17 23:50:00,
2017-10-17 18:00:00,63.4,22.7,29.68,SW,236,11.0,11.0,21,0.00,,,0.00,79,Wunderground v.1.15,2017-10-18 00:00:00,
2017-10-17 18:05:00,63.3,22.7,29.68,WSW,252,11.0,13.0,21,0.00,,,0.00,72,Wunderground v.1.15,2017-10-18 00:05:00,
2017-10-17 18:15:00,62.5,23.1,29.67,West,259,11.0,13.0,22,0.00,,,0.00,16,Wunderground v.1.15,2017-10-18 00:15:00,
2017-10-17 18:25:00,62.1,22.8,29.67,WSW,237,13.0,14.0,22,0.00,,,0.00,11,Wunderground v.1.15,2017-10-18 00:25:00,